createdAt,value
2019-05-13T00:00:36.408Z,57.85
2019-05-13T00:03:08.296Z,57.91
2019-05-13T00:05:44.234Z,58.08
2019-05-13T00:08:15.379Z,58.56
2019-05-13T00:10:47.289Z,58.94
2019-05-13T00:13:18.545Z,59.06
2019-05-13T00:15:50.475Z,58.74
2019-05-13T00:18:23.559Z,58.92
2019-05-13T00:20:55.574Z,58.83
2019-05-13T00:23:27.500Z,59.30
2019-05-13T00:25:59.468Z,59.71
2019-05-13T00:28:33.986Z,59.88
2019-05-13T00:31:06.125Z,60.12
2019-05-13T00:33:38.067Z,60.34
2019-05-13T00:36:10.002Z,60.79
2019-05-13T00:38:43.948Z,60.99
2019-05-13T00:41:15.505Z,61.18
2019-05-13T00:43:47.380Z,61.59
2019-05-13T00:46:19.251Z,61.83
2019-05-13T00:48:51.091Z,61.68
2019-05-13T00:51:24.378Z,61.72
2019-05-13T00:53:56.336Z,61.95
2019-05-13T00:56:28.170Z,62.13
2019-05-13T00:59:00.221Z,62.07
2019-05-13T01:01:33.560Z,62.04
2019-05-13T01:04:05.474Z,61.77
2019-05-13T01:06:37.371Z,61.96
2019-05-13T01:09:09.690Z,62.03
2019-05-13T01:11:40.884Z,62.11
2019-05-13T01:14:14.328Z,62.22
2019-05-13T01:16:45.703Z,62.60
2019-05-13T01:19:16.778Z,62.49
2019-05-13T01:21:48.640Z,62.49
2019-05-13T01:24:19.851Z,63.02
2019-05-13T01:26:54.002Z,63.69
2019-05-13T01:29:25.326Z,64.20
2019-05-13T01:31:57.120Z,64.32
2019-05-13T01:34:29.052Z,64.14
2019-05-13T01:37:01.061Z,64.42
2019-05-13T01:39:34.926Z,64.78
2019-05-13T01:42:06.386Z,65.17
2019-05-13T01:44:38.169Z,65.39
2019-05-13T01:47:10.041Z,65.72
2019-05-13T01:49:43.898Z,66.04
2019-05-13T01:52:15.427Z,66.39
2019-05-13T01:54:48.247Z,66.44
2019-05-13T01:57:20.169Z,66.45
2019-05-13T01:59:53.786Z,66.63
2019-05-13T02:02:25.806Z,66.89
2019-05-13T02:04:57.658Z,66.52
2019-05-13T02:07:29.444Z,66.96
2019-05-13T02:10:04.196Z,67.13
2019-05-13T02:12:35.632Z,67.01
2019-05-13T02:15:07.295Z,67.07
2019-05-13T02:17:39.068Z,67.42
2019-05-13T02:20:10.526Z,67.93
2019-05-13T02:22:44.526Z,68.38
2019-05-13T02:25:15.811Z,68.77
2019-05-13T02:27:47.663Z,69.01
2019-05-13T02:30:18.869Z,69.43
2019-05-13T02:32:52.935Z,69.24
2019-05-13T02:35:23.493Z,69.76
2019-05-13T02:38:12.532Z,69.55
2019-05-13T02:40:29.073Z,69.34
2019-05-13T02:43:02.891Z,69.57
2019-05-13T02:45:34.176Z,69.26
2019-05-13T02:48:05.947Z,69.45
2019-05-13T02:50:37.756Z,69.73
2019-05-13T02:53:13.369Z,69.72
2019-05-13T02:55:43.811Z,70.06
2019-05-13T02:58:15.711Z,69.97
2019-05-13T03:00:47.641Z,69.89
2019-05-13T03:03:22.696Z,70.25
2019-05-13T03:05:53.643Z,70.68
2019-05-13T03:08:39.128Z,70.57
2019-05-13T03:10:59.203Z,70.55
2019-05-13T03:13:32.643Z,70.81
2019-05-13T03:16:13.819Z,71.30
2019-05-13T03:18:45.772Z,71.11
2019-05-13T03:21:17.648Z,71.10
2019-05-13T03:23:52.292Z,70.91
2019-05-13T03:26:23.480Z,70.67
2019-05-13T03:28:55.670Z,71.04
2019-05-13T03:31:27.516Z,71.07
2019-05-13T03:33:59.368Z,71.12
2019-05-13T03:36:36.397Z,71.53
2019-05-13T03:39:12.468Z,71.65
2019-05-13T03:41:43.598Z,71.98
2019-05-13T03:44:16.266Z,71.95
2019-05-13T03:46:52.881Z,72.31
2019-05-13T03:49:32.271Z,72.50
2019-05-13T03:52:03.538Z,72.75
2019-05-13T03:54:35.410Z,72.96
2019-05-13T03:57:07.377Z,73.12
2019-05-13T03:59:43.329Z,73.25
2019-05-13T04:02:14.516Z,73.02
2019-05-13T04:04:46.375Z,73.04
2019-05-13T04:07:18.193Z,73.13
2019-05-13T04:09:52.445Z,73.18
2019-05-13T04:12:28.121Z,73.49
2019-05-13T04:14:57.348Z,73.63
2019-05-13T04:17:31.978Z,73.78
2019-05-13T04:20:03.267Z,73.69
2019-05-13T04:22:35.313Z,73.09
2019-05-13T04:25:06.973Z,73.18
2019-05-13T04:27:38.778Z,72.90
2019-05-13T04:30:13.393Z,72.74
2019-05-13T04:32:45.531Z,72.54
2019-05-13T04:35:17.431Z,72.26
2019-05-13T04:37:52.224Z,71.64
2019-05-13T04:40:23.708Z,70.65
2019-05-13T04:42:55.678Z,70.19
2019-05-13T04:45:27.519Z,69.94
2019-05-13T04:48:03.311Z,69.08
2019-05-13T04:50:34.563Z,68.84
2019-05-13T04:53:06.374Z,68.80
2019-05-13T04:55:37.491Z,68.75
2019-05-13T04:58:12.673Z,69.14
2019-05-13T05:01:51.738Z,68.32
2019-05-13T05:04:39.345Z,68.01
2019-05-13T05:07:52.967Z,67.50
2019-05-13T05:11:22.193Z,66.96
2019-05-13T05:14:14.566Z,66.14
2019-05-13T05:17:52.343Z,66.01
2019-05-13T05:21:02.757Z,65.13
2019-05-13T05:24:33.203Z,64.56
2019-05-13T05:27:36.972Z,64.23
2019-05-13T05:31:05.106Z,63.60
2019-05-13T05:34:16.750Z,63.35
2019-05-13T05:37:23.879Z,63.81
2019-05-13T05:40:02.088Z,63.86
2019-05-13T05:42:41.249Z,63.38
2019-05-13T05:45:14.002Z,64.19
2019-05-13T05:48:06.331Z,64.60
2019-05-13T05:50:42.398Z,64.67
2019-05-13T05:53:18.425Z,64.33
2019-05-13T05:55:54.921Z,64.58
2019-05-13T05:58:31.597Z,65.04
2019-05-13T06:01:04.915Z,64.50
2019-05-13T06:03:41.885Z,65.11
2019-05-13T06:06:16.071Z,65.25
2019-05-13T06:08:48.689Z,65.37
2019-05-13T06:11:22.245Z,65.15
2019-05-13T06:13:56.611Z,65.58
2019-05-13T06:16:28.151Z,65.46
2019-05-13T06:19:01.897Z,65.22
2019-05-13T06:21:34.297Z,65.88
2019-05-13T06:24:06.366Z,65.59
2019-05-13T06:26:38.441Z,66.15
2019-05-13T06:29:11.655Z,65.38
2019-05-13T06:31:44.053Z,65.51
2019-05-13T06:34:16.089Z,65.24
2019-05-13T06:36:48.087Z,65.59
2019-05-13T06:39:22.210Z,64.79
2019-05-13T06:41:54.001Z,64.20
2019-05-13T06:44:26.061Z,64.17
2019-05-13T06:46:58.017Z,64.06
2019-05-13T06:49:32.637Z,63.94
2019-05-13T06:52:03.919Z,63.35
2019-05-13T06:54:35.931Z,62.68
2019-05-13T06:57:07.131Z,63.03
2019-05-13T06:59:38.954Z,62.63
2019-05-13T07:02:12.426Z,62.83
2019-05-13T07:04:44.479Z,61.76
2019-05-13T07:07:17.470Z,61.75
2019-05-13T07:09:51.790Z,61.90
2019-05-13T07:12:23.346Z,61.86
2019-05-13T07:14:55.222Z,58.00
2019-05-13T07:17:27.069Z,58.74
2019-05-13T07:19:58.920Z,58.31
2019-05-13T07:22:32.143Z,55.65
2019-05-13T07:25:04.358Z,54.91
2019-05-13T07:27:36.194Z,54.57
2019-05-13T07:30:11.134Z,54.56
2019-05-13T07:32:43.962Z,53.67
2019-05-13T07:35:16.788Z,53.93
2019-05-13T07:37:48.660Z,52.17
2019-05-13T07:40:22.248Z,52.89
2019-05-13T07:42:55.378Z,53.05
2019-05-13T07:45:27.419Z,52.62
2019-05-13T07:48:01.434Z,48.14
2019-05-13T07:50:33.036Z,42.89
2019-05-13T07:53:05.120Z,42.13
2019-05-13T07:55:36.292Z,42.19
2019-05-13T07:58:11.332Z,41.58
2019-05-13T08:00:43.134Z,43.44
2019-05-13T08:03:15.023Z,42.55
2019-05-13T08:05:46.304Z,42.81
2019-05-13T08:08:17.720Z,42.60
2019-05-13T08:10:49.040Z,40.56
2019-05-13T08:13:22.532Z,41.43
2019-05-13T08:15:54.683Z,40.16
2019-05-13T08:18:25.962Z,39.19
2019-05-13T08:20:57.246Z,38.39
2019-05-13T08:23:28.634Z,38.33
2019-05-13T08:26:02.222Z,37.17
2019-05-13T08:28:33.620Z,36.85
2019-05-13T08:31:05.688Z,38.36
2019-05-13T08:33:37.385Z,36.42
2019-05-13T08:36:08.650Z,35.40
2019-05-13T08:38:42.964Z,36.35
2019-05-13T08:41:18.781Z,35.59
2019-05-13T08:43:46.656Z,34.37
2019-05-13T08:46:17.926Z,33.61
2019-05-13T08:48:51.879Z,34.46
2019-05-13T08:51:23.863Z,35.11
2019-05-13T08:53:55.028Z,33.78
2019-05-13T08:56:26.976Z,34.44
2019-05-13T08:58:58.462Z,34.17
2019-05-13T09:01:31.949Z,33.07
2019-05-13T09:04:04.363Z,33.65
2019-05-13T09:06:37.102Z,33.35
2019-05-13T09:09:11.474Z,33.93
2019-05-13T09:11:43.034Z,33.30
2019-05-13T09:14:15.915Z,32.64
2019-05-13T09:16:47.921Z,32.65
2019-05-13T09:19:21.436Z,32.05
2019-05-13T09:21:52.696Z,31.47
2019-05-13T09:24:33.001Z,31.21
2019-05-13T09:26:58.304Z,30.60
2019-05-13T09:29:32.226Z,30.70
2019-05-13T09:32:04.317Z,31.39
2019-05-13T09:34:35.568Z,32.20
2019-05-13T09:37:07.480Z,31.58
2019-05-13T09:39:41.281Z,32.29
2019-05-13T09:42:12.650Z,32.08
2019-05-13T09:44:44.648Z,31.86
2019-05-13T09:47:15.871Z,31.17
2019-05-13T09:49:47.653Z,30.74
2019-05-13T09:52:19.584Z,30.55
2019-05-13T09:54:52.420Z,30.95
2019-05-13T09:57:24.421Z,30.43
2019-05-13T09:59:56.495Z,29.68
2019-05-13T10:02:28.445Z,30.86
2019-05-13T10:05:01.944Z,30.25
2019-05-13T10:07:33.319Z,28.86
2019-05-13T10:10:05.223Z,29.63
2019-05-13T10:12:36.419Z,30.26
2019-05-13T10:15:08.071Z,30.54
2019-05-13T10:17:42.467Z,30.15
2019-05-13T10:20:13.797Z,29.92
2019-05-13T10:22:45.767Z,29.95
2019-05-13T10:25:22.250Z,30.26
2019-05-13T10:27:52.663Z,30.50
2019-05-13T10:30:24.824Z,29.97
2019-05-13T10:32:59.450Z,29.59
2019-05-13T10:35:31.684Z,29.68
2019-05-13T10:38:04.599Z,28.63
2019-05-13T10:40:36.798Z,28.20
2019-05-13T10:43:26.238Z,28.80
2019-05-13T10:45:41.630Z,29.02
2019-05-13T10:48:13.649Z,28.83
2019-05-13T10:50:45.903Z,29.58
2019-05-13T10:53:17.759Z,30.59
2019-05-13T10:55:51.503Z,29.56
2019-05-13T10:58:23.600Z,29.93
2019-05-13T11:00:56.471Z,29.47
2019-05-13T11:03:28.445Z,28.67
2019-05-13T11:06:00.357Z,29.33
2019-05-13T11:08:32.983Z,30.77
2019-05-13T11:11:06.270Z,30.09
2019-05-13T11:13:52.321Z,30.26
2019-05-13T11:16:12.153Z,30.59
2019-05-13T11:18:43.636Z,31.13
2019-05-13T11:21:15.856Z,31.76
2019-05-13T11:23:47.795Z,31.14
2019-05-13T11:26:21.959Z,31.19
2019-05-13T11:28:53.044Z,30.78
2019-05-13T11:31:24.907Z,30.09
2019-05-13T11:33:57.179Z,30.19
2019-05-13T11:36:30.056Z,29.12
2019-05-13T11:39:05.006Z,29.81
2019-05-13T11:41:36.996Z,28.98
2019-05-13T11:46:43.235Z,29.10
2019-05-13T11:49:15.332Z,29.01
2019-05-13T11:51:46.705Z,26.02
2019-05-13T11:54:17.805Z,27.25
2019-05-13T11:57:00.828Z,27.25
2019-05-13T11:59:22.603Z,27.98
2019-05-13T12:01:54.547Z,28.58
2019-05-13T12:04:26.148Z,29.93
2019-05-13T12:06:58.407Z,30.54
2019-05-13T12:09:31.978Z,31.01
2019-05-13T12:12:04.141Z,30.75
2019-05-13T12:14:56.437Z,29.49
2019-05-13T12:17:09.383Z,28.90
2019-05-13T12:19:41.838Z,29.02
2019-05-13T12:22:13.907Z,28.34
2019-05-13T12:24:46.002Z,27.78
2019-05-13T12:27:18.224Z,29.75
2019-05-13T12:29:52.781Z,28.39
2019-05-13T12:32:23.541Z,28.95
2019-05-13T12:34:55.695Z,28.10
2019-05-13T12:37:27.608Z,27.56
2019-05-13T12:39:59.227Z,26.81
2019-05-13T12:42:33.843Z,26.59
2019-05-13T12:47:37.822Z,27.58
2019-05-13T12:50:13.479Z,27.86
2019-05-13T12:52:44.103Z,27.89
2019-05-13T12:55:15.898Z,27.84
2019-05-13T12:57:48.062Z,27.42
2019-05-13T13:00:23.307Z,26.98
2019-05-13T13:02:53.268Z,26.83
2019-05-13T13:05:31.903Z,27.12
2019-05-13T13:08:17.089Z,28.52
2019-05-13T13:10:34.467Z,29.54
2019-05-13T13:13:06.591Z,29.51
2019-05-13T13:15:43.483Z,29.23
2019-05-13T13:18:14.357Z,29.18
2019-05-13T13:20:45.453Z,29.69
2019-05-13T13:23:16.638Z,28.98
2019-05-13T13:25:53.038Z,29.88
2019-05-13T13:28:23.834Z,29.32
2019-05-13T13:30:54.243Z,28.50
2019-05-13T13:33:26.058Z,28.32
2019-05-13T13:36:00.181Z,29.16
2019-05-13T13:38:32.632Z,28.18
2019-05-13T13:41:04.540Z,28.58
2019-05-13T13:43:37.369Z,27.68
2019-05-13T13:46:25.350Z,28.25
2019-05-13T13:48:43.688Z,27.56
2019-05-13T13:51:15.770Z,26.79
2019-05-13T13:53:48.026Z,27.26
2019-05-13T13:56:24.502Z,28.22
2019-05-13T13:58:52.088Z,27.95
2019-05-13T14:01:27.249Z,27.55
2019-05-13T14:03:57.097Z,27.56
2019-05-13T14:06:29.232Z,29.33
2019-05-13T14:07:13.615Z,26.84
2019-05-13T14:09:01.921Z,28.26
2019-05-13T14:11:34.867Z,27.98
2019-05-13T14:14:06.038Z,28.65
2019-05-13T14:16:38.841Z,28.38
2019-05-13T14:19:10.917Z,27.44
2019-05-13T14:21:42.801Z,28.97
2019-05-13T14:24:14.706Z,28.64
2019-05-13T14:26:46.544Z,29.19
2019-05-13T14:29:17.769Z,29.50
2019-05-13T14:31:51.837Z,28.63
2019-05-13T14:34:22.514Z,28.27
2019-05-13T14:36:53.670Z,28.11
2019-05-13T14:39:25.698Z,27.90
2019-05-13T14:41:56.899Z,27.36
2019-05-13T14:44:28.945Z,27.53
2019-05-13T14:47:01.607Z,26.83
2019-05-13T14:49:33.837Z,26.84
2019-05-13T14:52:06.061Z,26.78
2019-05-13T14:54:37.696Z,27.55
2019-05-13T14:57:11.840Z,28.72
2019-05-13T14:59:41.687Z,27.78
2019-05-13T15:02:13.506Z,28.07
2019-05-13T15:04:45.654Z,28.08
2019-05-13T15:07:18.074Z,27.97
2019-05-13T15:09:51.482Z,27.54
2019-05-13T15:12:22.871Z,27.79
2019-05-13T15:14:54.800Z,27.89
2019-05-13T15:17:26.963Z,27.39
2019-05-13T15:19:58.263Z,27.36
2019-05-13T15:22:31.846Z,27.88
2019-05-13T15:25:03.494Z,27.68
2019-05-13T15:27:34.606Z,28.00
2019-05-13T15:30:17.372Z,27.22
2019-05-13T15:32:41.998Z,27.67
2019-05-13T15:35:13.524Z,27.59
2019-05-13T15:37:45.269Z,27.63
2019-05-13T15:40:16.690Z,27.56
2019-05-13T15:42:48.764Z,27.74
2019-05-13T15:45:21.304Z,28.24
2019-05-13T15:47:53.637Z,28.50
2019-05-13T15:50:24.724Z,28.19
2019-05-13T15:52:56.615Z,29.75
2019-05-13T15:55:28.060Z,30.84
2019-05-13T15:57:59.256Z,31.03
2019-05-13T16:00:30.383Z,31.84
2019-05-13T16:03:01.748Z,31.73
2019-05-13T16:05:33.169Z,31.44
2019-05-13T16:08:05.340Z,31.81
2019-05-13T16:10:36.544Z,31.51
2019-05-13T16:13:07.789Z,31.55
2019-05-13T16:15:41.470Z,31.59
2019-05-13T16:18:13.620Z,31.75
2019-05-13T16:20:45.436Z,31.53
2019-05-13T16:23:23.802Z,31.33
2019-05-13T16:25:55.052Z,30.59
2019-05-13T16:28:26.201Z,30.67
2019-05-13T16:30:57.530Z,30.00
2019-05-13T16:33:31.189Z,29.15
2019-05-13T16:36:02.840Z,30.08
2019-05-13T16:38:34.093Z,30.39
2019-05-13T16:41:05.254Z,30.68
2019-05-13T16:43:36.835Z,31.05
2019-05-13T16:46:08.013Z,30.80
2019-05-13T16:48:41.587Z,30.71
2019-05-13T16:51:13.660Z,29.89
2019-05-13T16:53:44.894Z,29.69
2019-05-13T16:56:26.321Z,29.75
2019-05-13T16:58:52.127Z,28.44
2019-05-13T17:01:29.014Z,29.40
2019-05-13T17:04:06.785Z,28.84
2019-05-13T17:06:41.665Z,28.53
2019-05-13T17:09:14.782Z,27.41
2019-05-13T17:11:48.387Z,28.64
2019-05-13T17:14:22.777Z,29.26
2019-05-13T17:16:58.705Z,29.58
2019-05-13T17:19:33.595Z,29.07
2019-05-13T17:22:07.254Z,29.00
2019-05-13T17:24:42.460Z,29.59
2019-05-13T17:27:12.777Z,30.25
2019-05-13T17:29:43.961Z,29.94
2019-05-13T17:32:15.332Z,30.46
2019-05-13T17:34:47.204Z,31.11
2019-05-13T17:37:19.166Z,30.78
2019-05-13T17:39:51.481Z,31.62
2019-05-13T17:42:23.549Z,31.56
2019-05-13T17:44:54.909Z,32.14
2019-05-13T17:47:26.157Z,32.06
2019-05-13T17:49:58.227Z,32.01
2019-05-13T17:52:30.249Z,31.56
2019-05-13T17:55:02.306Z,31.59
2019-05-13T17:57:34.597Z,31.47
2019-05-13T18:00:07.377Z,31.61
2019-05-13T18:02:42.042Z,32.58
2019-05-13T18:05:13.931Z,33.21
2019-05-13T18:07:46.090Z,32.89
2019-05-13T18:10:17.548Z,33.39
2019-05-13T18:12:51.105Z,33.28
2019-05-13T18:15:23.095Z,34.18
2019-05-13T18:17:54.404Z,35.17
2019-05-13T18:20:26.576Z,35.31
2019-05-13T18:22:58.234Z,36.04
2019-05-13T18:25:31.801Z,36.70
2019-05-13T18:28:03.232Z,37.21
2019-05-13T18:30:35.573Z,38.35
2019-05-13T18:33:07.356Z,38.22
2019-05-13T18:35:41.711Z,38.58
2019-05-13T18:38:13.489Z,38.56
2019-05-13T18:40:45.602Z,38.81
2019-05-13T18:43:17.033Z,38.97
2019-05-13T18:45:48.483Z,39.36
2019-05-13T18:48:21.915Z,39.82
2019-05-13T18:50:54.261Z,40.44
2019-05-13T18:53:25.945Z,40.45
2019-05-13T18:55:57.229Z,40.54
2019-05-13T18:58:31.472Z,40.82
2019-05-13T19:01:03.693Z,41.01
2019-05-13T19:03:35.281Z,41.47
2019-05-13T19:06:07.285Z,41.91
2019-05-13T19:08:41.395Z,42.47
2019-05-13T19:11:12.575Z,42.40
2019-05-13T19:13:48.520Z,42.70
2019-05-13T19:16:21.433Z,42.45
2019-05-13T19:18:53.912Z,42.70
2019-05-13T19:21:27.055Z,42.92
2019-05-13T19:24:01.907Z,43.25
2019-05-13T19:26:33.935Z,43.96
2019-05-13T19:29:06.548Z,45.29
2019-05-13T19:31:41.835Z,46.01
2019-05-13T19:34:18.233Z,46.10
2019-05-13T19:36:51.616Z,46.17
2019-05-13T19:39:24.134Z,46.38
2019-05-13T19:41:59.359Z,46.52
2019-05-13T19:44:31.795Z,46.75
2019-05-13T19:47:05.071Z,47.07
2019-05-13T19:49:37.926Z,47.52
2019-05-13T19:52:11.953Z,48.48
2019-05-13T19:54:44.429Z,50.67
2019-05-13T19:57:16.708Z,50.75
2019-05-13T19:59:49.512Z,50.86
2019-05-13T20:02:22.352Z,51.27
2019-05-13T20:04:57.471Z,52.02
2019-05-13T20:07:31.787Z,52.32
2019-05-13T20:10:18.924Z,52.79
2019-05-13T20:13:13.279Z,52.75
2019-05-13T20:16:22.327Z,52.56
2019-05-13T20:18:48.201Z,53.35
2019-05-13T20:21:32.469Z,53.82
2019-05-13T20:24:17.259Z,53.94
2019-05-13T20:26:54.497Z,54.34
2019-05-13T20:29:28.572Z,54.76
2019-05-13T20:32:01.488Z,55.58
2019-05-13T20:34:35.751Z,54.96
2019-05-13T20:37:14.791Z,55.13
2019-05-13T20:39:48.584Z,55.70
2019-05-13T20:42:46.883Z,55.12
2019-05-13T20:45:42.136Z,54.43
2019-05-13T20:48:25.820Z,55.02
2019-05-13T20:51:02.555Z,55.23
2019-05-13T20:54:14.402Z,55.74
2019-05-13T20:56:42.120Z,55.41
2019-05-13T20:59:28.737Z,56.61
2019-05-13T21:02:15.159Z,56.69
2019-05-13T21:04:58.115Z,56.06
2019-05-13T21:07:38.783Z,55.18
2019-05-13T21:10:12.169Z,54.51
2019-05-13T21:12:44.342Z,54.18
2019-05-13T21:15:26.310Z,54.97
2019-05-13T21:17:53.820Z,55.09
2019-05-13T21:20:29.053Z,55.83
2019-05-13T21:23:02.265Z,56.48
2019-05-13T21:25:36.200Z,56.30
2019-05-13T21:28:07.524Z,56.58
2019-05-13T21:30:42.022Z,56.27
2019-05-13T21:33:18.249Z,56.26
2019-05-13T21:35:55.703Z,56.61
2019-05-13T21:38:35.090Z,56.73
2019-05-13T21:41:08.002Z,57.00
2019-05-13T21:43:42.897Z,56.60
2019-05-13T21:46:16.506Z,56.63
2019-05-13T21:48:48.483Z,56.59
2019-05-13T21:51:22.155Z,56.81
2019-05-13T21:53:55.527Z,57.28
2019-05-13T21:56:27.540Z,57.42
2019-05-13T21:59:01.429Z,57.33
2019-05-13T22:01:33.177Z,57.63
2019-05-13T22:04:05.243Z,57.99
2019-05-13T22:06:37.273Z,58.06
2019-05-13T22:09:11.748Z,58.04
2019-05-13T22:11:43.956Z,58.83
2019-05-13T22:14:15.813Z,58.95
2019-05-13T22:16:47.117Z,59.73
2019-05-13T22:19:19.016Z,60.30
2019-05-13T22:21:51.505Z,60.36
2019-05-13T22:24:24.034Z,60.83
2019-05-13T22:26:56.108Z,61.58
2019-05-13T22:29:27.309Z,62.09
2019-05-13T22:31:59.294Z,62.22
2019-05-13T22:34:31.865Z,62.61
2019-05-13T22:37:03.545Z,62.77
2019-05-13T22:39:35.442Z,63.17
2019-05-13T22:42:07.507Z,63.94
2019-05-13T22:44:41.527Z,64.19
2019-05-13T22:47:13.453Z,64.38
2019-05-13T22:49:45.417Z,64.68
2019-05-13T22:52:17.313Z,65.86
2019-05-13T22:54:51.654Z,65.69
2019-05-13T22:57:22.802Z,65.84
2019-05-13T22:59:54.049Z,67.41
2019-05-13T23:02:25.921Z,67.10
2019-05-13T23:04:57.724Z,68.06
2019-05-13T23:07:31.534Z,68.11
2019-05-13T23:10:03.152Z,68.57
2019-05-13T23:12:34.443Z,69.04
2019-05-13T23:15:07.343Z,69.31
2019-05-13T23:17:38.698Z,69.16
2019-05-13T23:20:10.705Z,69.54
2019-05-13T23:22:42.715Z,69.70
2019-05-13T23:25:14.689Z,70.80
2019-05-13T23:27:46.645Z,71.44
2019-05-13T23:30:18.831Z,70.45
2019-05-13T23:32:51.740Z,70.68
2019-05-13T23:35:23.895Z,70.98
2019-05-13T23:37:55.788Z,70.90
2019-05-13T23:40:27.901Z,70.86
2019-05-13T23:43:01.900Z,71.40
2019-05-13T23:45:33.665Z,71.31
2019-05-13T23:48:05.598Z,71.36
2019-05-13T23:50:37.484Z,71.41
2019-05-13T23:53:09.374Z,71.83
2019-05-13T23:55:41.445Z,71.93
2019-05-13T23:58:13.336Z,72.27
